Mae do Rio, Brazil
Current Conditions -  °F | °C
As of 6:00 AM on Friday 19 Dec 2014 (Local Time) from SBBE Reporting Station
Haze Haze  
Wind Chill: 75°   Ceiling: Unl
Heat Index: 75°   Visibility: 3mi
Dew Point: 72°   Wind: 3mph
Humidity: 89%   Direction: 70°ENE
Pressure: 29.88"   Gusts: NA
Location:  2.05°S, 47.55°W
Report Text: SBBE 190900Z 07003KT 5000 BR NSC 24/22 Q1012
Loading
Personal Weather Stations






























Interactive Weather Map New forecast layout! Learn more

10-Day Weather Forecast

Advertisements
Track Severe Weather on mobile